createdAt,value
2022-12-01T00:00:09.524Z,16.23
2022-12-01T00:02:36.040Z,16.37
2022-12-01T00:05:02.889Z,15.90
2022-12-01T00:07:29.621Z,15.80
2022-12-01T00:10:15.074Z,16.17
2022-12-01T00:12:43.574Z,15.83
2022-12-01T00:15:13.263Z,15.33
2022-12-01T00:17:39.704Z,14.20
2022-12-01T00:20:07.043Z,14.37
2022-12-01T00:22:33.538Z,16.33
2022-12-01T00:25:00.034Z,15.80
2022-12-01T00:27:27.782Z,15.93
2022-12-01T00:29:54.226Z,14.43
2022-12-01T00:32:20.597Z,14.53
2022-12-01T00:34:47.074Z,15.87
2022-12-01T00:37:14.599Z,16.63
2022-12-01T00:39:40.987Z,16.00
2022-12-01T00:42:12.912Z,17.73
2022-12-01T00:44:39.830Z,16.70
2022-12-01T00:47:06.366Z,17.80
2022-12-01T00:49:32.777Z,18.77
2022-12-01T00:51:59.302Z,17.43
2022-12-01T00:54:25.721Z,18.93
2022-12-01T00:56:52.183Z,17.50
2022-12-01T00:59:18.910Z,19.47
2022-12-01T01:01:45.388Z,17.73
2022-12-01T01:04:11.821Z,19.83
2022-12-01T01:06:38.339Z,18.43
2022-12-01T01:09:07.050Z,18.77
2022-12-01T01:11:33.526Z,19.53
2022-12-01T01:14:00.597Z,19.53
2022-12-01T01:16:27.461Z,17.50
2022-12-01T01:18:55.733Z,18.07
2022-12-01T01:21:22.608Z,18.33
2022-12-01T01:23:50.267Z,18.77
2022-12-01T01:26:18.115Z,20.23
2022-12-01T01:28:47.190Z,19.77
2022-12-01T01:31:16.681Z,19.67
2022-12-01T01:33:43.481Z,18.87
2022-12-01T01:36:10.474Z,18.77
2022-12-01T01:38:37.274Z,20.27
2022-12-01T01:41:05.292Z,19.47
2022-12-01T01:43:49.752Z,19.57
2022-12-01T01:46:28.389Z,19.10
2022-12-01T01:49:08.209Z,21.10
2022-12-01T01:51:49.336Z,19.83
2022-12-01T01:54:24.044Z,19.30
2022-12-01T01:56:52.853Z,20.13
2022-12-01T01:59:25.172Z,20.17
2022-12-01T02:01:58.781Z,19.50
2022-12-01T02:04:27.662Z,19.70
2022-12-01T02:06:54.955Z,18.53
2022-12-01T02:09:21.396Z,18.17
2022-12-01T02:12:26.545Z,18.10
2022-12-01T02:15:23.690Z,19.53
2022-12-01T02:18:04.995Z,18.27
2022-12-01T02:21:00.553Z,18.97
2022-12-01T02:24:01.017Z,18.83
2022-12-01T02:26:39.841Z,18.17
2022-12-01T02:29:39.299Z,17.73
2022-12-01T02:32:17.762Z,19.43
2022-12-01T02:34:59.259Z,17.47
2022-12-01T02:37:35.878Z,18.17
2022-12-01T02:40:26.623Z,18.57
2022-12-01T02:43:14.895Z,17.80
2022-12-01T02:45:56.502Z,18.67
2022-12-01T02:48:33.688Z,17.60
2022-12-01T02:51:10.081Z,17.60
2022-12-01T02:53:36.918Z,18.37
2022-12-01T02:56:07.873Z,17.73
2022-12-01T02:58:34.299Z,17.23
2022-12-01T03:01:24.362Z,18.00
2022-12-01T03:04:12.925Z,16.67
2022-12-01T03:06:42.337Z,14.17
2022-12-01T03:09:34.475Z,12.40
2022-12-01T03:12:12.981Z,13.37
2022-12-01T03:15:02.077Z,12.83
2022-12-01T03:17:35.797Z,12.30
2022-12-01T03:20:12.970Z,12.20
2022-12-01T03:22:49.854Z,13.80
2022-12-01T03:25:18.146Z,12.43
2022-12-01T03:28:13.564Z,13.53
2022-12-01T03:30:37.429Z,14.57
2022-12-01T03:33:09.722Z,13.27
2022-12-01T03:35:46.197Z,13.87
2022-12-01T03:38:17.867Z,14.27
2022-12-01T03:40:48.846Z,12.87
2022-12-01T03:43:21.013Z,14.33
2022-12-01T03:46:07.343Z,14.03
2022-12-01T03:48:34.223Z,12.13
2022-12-01T03:51:18.223Z,13.20
2022-12-01T03:53:59.434Z,13.47
2022-12-01T03:56:31.742Z,13.97
2022-12-01T03:59:02.320Z,13.07
2022-12-01T04:01:33.843Z,13.13
2022-12-01T04:04:07.532Z,13.83
2022-12-01T04:06:34.449Z,14.00
2022-12-01T04:09:00.916Z,13.23
2022-12-01T04:11:45.825Z,13.40
2022-12-01T04:14:12.288Z,13.87
2022-12-01T04:16:38.752Z,13.37
2022-12-01T04:19:05.235Z,13.40
2022-12-01T04:21:31.782Z,14.43
2022-12-01T04:24:01.079Z,14.03
2022-12-01T04:26:33.950Z,15.57
2022-12-01T04:29:01.916Z,16.50
2022-12-01T04:31:28.942Z,15.53
2022-12-01T04:33:56.478Z,16.37
2022-12-01T04:36:23.930Z,13.67
2022-12-01T04:38:50.351Z,14.47
2022-12-01T04:41:17.143Z,14.33
2022-12-01T04:43:43.786Z,14.60
2022-12-01T04:46:10.616Z,14.63
2022-12-01T04:48:38.447Z,14.20
2022-12-01T04:51:07.586Z,14.87
2022-12-01T04:53:35.063Z,14.63
2022-12-01T04:56:02.040Z,14.63
2022-12-01T04:58:30.364Z,14.63
2022-12-01T05:01:08.484Z,14.70
2022-12-01T05:03:43.524Z,14.73
2022-12-01T05:06:15.680Z,16.20
2022-12-01T05:08:42.259Z,15.17
2022-12-01T05:11:11.693Z,16.07
2022-12-01T05:13:42.801Z,15.60
2022-12-01T05:16:20.628Z,15.83
2022-12-01T05:18:49.374Z,15.43
2022-12-01T05:21:16.014Z,17.27
2022-12-01T05:23:42.476Z,18.40
2022-12-01T05:26:09.718Z,17.37
2022-12-01T05:28:36.265Z,18.20
2022-12-01T05:31:03.305Z,18.40
2022-12-01T05:33:30.296Z,19.07
2022-12-01T05:35:56.997Z,18.93
2022-12-01T05:38:23.483Z,19.93
2022-12-01T05:40:52.373Z,21.27
2022-12-01T05:43:23.871Z,19.73
2022-12-01T05:45:55.364Z,20.13
2022-12-01T05:48:21.888Z,21.27
2022-12-01T05:50:48.344Z,21.53
2022-12-01T05:53:15.610Z,20.13
2022-12-01T05:55:42.539Z,19.87
2022-12-01T05:58:10.045Z,21.03
2022-12-01T06:00:42.289Z,21.27
2022-12-01T06:03:12.024Z,20.93
2022-12-01T06:05:39.379Z,19.67
2022-12-01T06:08:06.004Z,20.67
2022-12-01T06:10:32.505Z,19.93
2022-12-01T06:12:58.934Z,20.40
2022-12-01T06:15:27.325Z,20.60
2022-12-01T06:17:53.875Z,20.63
2022-12-01T06:20:21.381Z,19.63
2022-12-01T06:22:48.395Z,21.87
2022-12-01T06:25:15.000Z,21.77
2022-12-01T06:27:41.405Z,20.43
2022-12-01T06:30:08.988Z,21.60
2022-12-01T06:32:35.536Z,21.83
2022-12-01T06:35:02.158Z,23.23
2022-12-01T06:37:28.561Z,22.90
2022-12-01T06:39:55.126Z,22.20
2022-12-01T06:42:21.585Z,22.87
2022-12-01T06:44:48.006Z,21.97
2022-12-01T06:47:15.855Z,21.80
2022-12-01T06:49:42.525Z,22.30
2022-12-01T06:52:10.039Z,22.83
2022-12-01T06:54:37.500Z,22.10
2022-12-01T06:57:05.256Z,22.20
2022-12-01T06:59:32.012Z,22.83
2022-12-01T07:01:59.021Z,22.03
2022-12-01T07:04:25.609Z,24.17
2022-12-01T07:06:52.022Z,21.47
2022-12-01T07:09:18.546Z,23.40
2022-12-01T07:11:44.947Z,24.03
2022-12-01T07:14:19.926Z,24.43
2022-12-01T07:16:46.395Z,23.30
2022-12-01T07:19:13.096Z,22.80
2022-12-01T07:21:39.496Z,23.10
2022-12-01T07:24:06.305Z,25.37
2022-12-01T07:26:32.965Z,22.60
2022-12-01T07:28:59.360Z,23.50
2022-12-01T07:31:26.048Z,22.70
2022-12-01T07:33:52.705Z,24.87
2022-12-01T07:36:19.132Z,23.10
2022-12-01T07:38:45.883Z,23.60
2022-12-01T07:41:19.182Z,24.80
2022-12-01T07:43:46.127Z,22.93
2022-12-01T07:46:25.901Z,25.13
2022-12-01T07:48:53.729Z,23.37
2022-12-01T07:51:21.315Z,23.13
2022-12-01T07:53:50.116Z,22.97
2022-12-01T07:56:18.441Z,25.07
2022-12-01T07:58:44.994Z,23.10
2022-12-01T08:01:16.716Z,22.23
2022-12-01T08:03:43.475Z,24.17
2022-12-01T08:06:11.074Z,24.53
2022-12-01T08:08:40.871Z,24.90
2022-12-01T08:11:20.172Z,24.70
2022-12-01T08:13:46.999Z,24.23
2022-12-01T08:16:19.720Z,24.10
2022-12-01T08:18:46.293Z,23.67
2022-12-01T08:21:15.726Z,26.20
2022-12-01T08:23:42.873Z,22.20
2022-12-01T08:26:16.460Z,25.07
2022-12-01T08:28:43.730Z,23.53
2022-12-01T08:31:17.237Z,24.20
2022-12-01T08:33:44.164Z,23.97
2022-12-01T08:36:10.729Z,24.77
2022-12-01T08:38:37.764Z,23.93
2022-12-01T08:41:08.849Z,24.90
2022-12-01T08:46:36.222Z,23.40
2022-12-01T08:49:04.612Z,23.60
2022-12-01T08:51:31.115Z,22.10
2022-12-01T08:53:58.518Z,19.20
2022-12-01T08:56:30.309Z,22.77
2022-12-01T08:58:57.081Z,22.60
2022-12-01T09:01:25.598Z,24.93
2022-12-01T09:04:05.463Z,24.73
2022-12-01T09:06:37.408Z,23.50
2022-12-01T09:09:05.591Z,24.90
2022-12-01T09:11:33.320Z,24.07
2022-12-01T09:14:00.662Z,24.17
2022-12-01T09:16:28.341Z,24.27
2022-12-01T09:18:55.497Z,25.70
2022-12-01T09:21:28.060Z,22.83
2022-12-01T09:23:54.633Z,26.60
2022-12-01T09:26:21.305Z,23.37
2022-12-01T09:28:50.295Z,22.30
2022-12-01T09:31:18.441Z,19.20
2022-12-01T09:33:45.074Z,25.10
2022-12-01T09:36:11.540Z,20.80
2022-12-01T09:38:39.032Z,23.03
2022-12-01T09:41:10.868Z,25.57
2022-12-01T09:43:45.721Z,25.27
2022-12-01T09:46:18.912Z,24.40
2022-12-01T09:48:47.850Z,22.00
2022-12-01T09:51:20.753Z,21.63
2022-12-01T09:53:50.649Z,27.77
2022-12-01T09:56:26.128Z,28.00
2022-12-01T09:58:56.263Z,29.93
2022-12-01T10:01:32.389Z,26.63
2022-12-01T10:04:04.806Z,32.00
2022-12-01T10:06:48.972Z,31.63
2022-12-01T10:09:27.432Z,30.27
2022-12-01T10:12:06.323Z,32.13
2022-12-01T10:14:36.279Z,29.27
2022-12-01T10:17:20.620Z,25.40
2022-12-01T10:19:53.161Z,25.90
2022-12-01T10:22:57.256Z,27.50
2022-12-01T10:25:26.813Z,30.60
2022-12-01T10:28:19.260Z,27.33
2022-12-01T10:30:53.266Z,32.63
2022-12-01T10:33:25.730Z,25.73
2022-12-01T10:35:53.690Z,31.50
2022-12-01T10:38:30.182Z,30.53
2022-12-01T10:41:00.839Z,32.60
2022-12-01T10:43:44.467Z,32.27
2022-12-01T10:46:35.304Z,34.73
2022-12-01T10:49:09.834Z,32.70
2022-12-01T10:51:49.901Z,28.67
2022-12-01T10:54:17.145Z,33.70
2022-12-01T10:56:47.712Z,29.93
2022-12-01T10:59:32.084Z,30.83
2022-12-01T11:01:59.831Z,32.03
2022-12-01T11:04:51.176Z,26.10
2022-12-01T11:07:27.099Z,30.23
2022-12-01T11:10:15.315Z,31.33
2022-12-01T11:12:44.935Z,33.80
2022-12-01T11:15:21.388Z,34.73
2022-12-01T11:17:47.924Z,31.33
2022-12-01T11:20:38.161Z,29.00
2022-12-01T11:23:24.482Z,26.17
2022-12-01T11:26:05.321Z,26.63
2022-12-01T11:28:33.586Z,25.37
2022-12-01T11:31:06.605Z,27.47
2022-12-01T11:33:46.976Z,26.63
2022-12-01T11:36:22.734Z,24.87
2022-12-01T11:38:50.172Z,29.50
2022-12-01T11:41:43.137Z,28.90
2022-12-01T11:47:24.936Z,28.13
2022-12-01T11:50:00.674Z,27.40
2022-12-01T11:52:36.603Z,24.93
2022-12-01T11:55:22.852Z,24.03
2022-12-01T11:57:55.974Z,24.00
2022-12-01T12:00:28.544Z,23.33
2022-12-01T12:03:15.322Z,23.27
2022-12-01T12:06:05.972Z,22.97
2022-12-01T12:08:46.611Z,20.17
2022-12-01T12:11:42.201Z,20.33
2022-12-01T12:14:20.895Z,17.03
2022-12-01T12:17:02.519Z,17.00
2022-12-01T12:20:17.797Z,17.23
2022-12-01T12:22:56.483Z,16.63
2022-12-01T12:25:44.624Z,17.40
2022-12-01T12:28:31.421Z,18.37
2022-12-01T12:31:25.571Z,17.67
2022-12-01T12:34:22.812Z,17.63
2022-12-01T12:37:04.394Z,16.67
2022-12-01T12:39:55.901Z,15.23
2022-12-01T12:42:42.901Z,15.47
2022-12-01T12:45:45.463Z,15.90
2022-12-01T12:48:23.151Z,15.23
2022-12-01T12:51:05.712Z,13.90
2022-12-01T12:53:40.995Z,14.10
2022-12-01T12:56:13.449Z,13.53
2022-12-01T12:58:49.146Z,13.60
2022-12-01T13:01:24.624Z,12.53
2022-12-01T13:03:54.181Z,11.60
2022-12-01T13:06:38.581Z,11.90
2022-12-01T13:09:07.987Z,12.23
2022-12-01T13:11:47.546Z,12.33
2022-12-01T13:14:26.307Z,12.70
2022-12-01T13:16:59.054Z,12.37
2022-12-01T13:19:37.109Z,12.70
2022-12-01T13:22:07.249Z,10.27
2022-12-01T13:24:34.141Z,11.67
2022-12-01T13:27:06.478Z,11.63
2022-12-01T13:29:47.503Z,12.13
2022-12-01T13:32:34.855Z,11.47
2022-12-01T13:35:06.215Z,12.33
2022-12-01T13:37:37.890Z,12.17
2022-12-01T13:40:31.087Z,13.57
2022-12-01T13:43:10.279Z,11.70
2022-12-01T13:45:38.326Z,12.60
2022-12-01T13:48:06.540Z,11.80
2022-12-01T13:50:36.031Z,12.00
2022-12-01T13:53:17.592Z,13.37
2022-12-01T13:55:55.876Z,12.27
2022-12-01T13:58:25.877Z,11.17
2022-12-01T14:00:52.641Z,10.30
2022-12-01T14:03:21.859Z,11.13
2022-12-01T14:05:59.629Z,11.43
2022-12-01T14:08:30.626Z,10.20
2022-12-01T14:10:59.904Z,9.77
2022-12-01T14:13:28.348Z,10.37
2022-12-01T14:16:00.680Z,10.23
2022-12-01T14:18:39.797Z,9.73
2022-12-01T14:21:10.488Z,9.77
2022-12-01T14:24:02.161Z,9.57
2022-12-01T14:26:30.329Z,10.03
2022-12-01T14:28:59.951Z,9.93
2022-12-01T14:31:35.385Z,9.67
2022-12-01T14:34:07.843Z,9.20
2022-12-01T14:36:37.802Z,10.60
2022-12-01T14:39:25.500Z,9.30
2022-12-01T14:41:56.466Z,9.17
2022-12-01T14:44:41.953Z,10.47
2022-12-01T14:47:12.361Z,9.60
2022-12-01T14:50:03.999Z,9.83
2022-12-01T14:52:38.360Z,10.37
2022-12-01T14:55:13.924Z,9.80
2022-12-01T14:57:45.927Z,10.07
2022-12-01T15:00:14.192Z,9.77
2022-12-01T15:02:43.986Z,9.77
2022-12-01T15:05:12.554Z,10.80
2022-12-01T15:07:41.115Z,9.87
2022-12-01T15:10:19.668Z,10.37
2022-12-01T15:12:47.239Z,9.37
2022-12-01T15:15:18.764Z,9.93
2022-12-01T15:17:49.535Z,10.20
2022-12-01T15:20:30.066Z,9.87
2022-12-01T15:22:58.505Z,10.33
2022-12-01T15:25:29.483Z,9.77
2022-12-01T15:28:10.290Z,10.50
2022-12-01T15:30:37.000Z,9.77
2022-12-01T15:33:04.795Z,11.27
2022-12-01T15:35:31.550Z,10.60
2022-12-01T15:37:58.509Z,9.90
2022-12-01T15:41:06.231Z,11.17
2022-12-01T15:43:24.575Z,10.43
2022-12-01T15:45:59.668Z,11.43
2022-12-01T15:48:31.800Z,10.53
2022-12-01T15:51:25.577Z,11.30
2022-12-01T15:53:55.580Z,10.83
2022-12-01T15:56:31.254Z,9.77
2022-12-01T15:59:09.455Z,10.60
2022-12-01T16:01:36.432Z,9.83
2022-12-01T16:04:25.212Z,9.80
2022-12-01T16:07:08.164Z,9.87
2022-12-01T16:09:36.450Z,9.43
2022-12-01T16:12:09.157Z,9.50
2022-12-01T16:14:36.707Z,10.23
2022-12-01T16:17:04.731Z,10.07
2022-12-01T16:19:33.084Z,10.87
2022-12-01T16:21:59.425Z,10.47
2022-12-01T16:24:32.671Z,12.50
2022-12-01T16:26:59.250Z,11.07
2022-12-01T16:29:27.894Z,11.77
2022-12-01T16:32:19.367Z,12.03
2022-12-01T16:34:46.763Z,12.23
2022-12-01T16:37:14.708Z,11.30
2022-12-01T16:39:41.552Z,11.37
2022-12-01T16:42:12.239Z,10.73
2022-12-01T16:44:38.867Z,10.77
2022-12-01T16:47:14.208Z,11.47
2022-12-01T16:49:40.808Z,9.90
2022-12-01T16:52:36.651Z,12.43
2022-12-01T16:54:53.706Z,12.83
2022-12-01T16:57:20.144Z,11.33
2022-12-01T16:59:46.564Z,12.47
2022-12-01T17:02:13.063Z,13.10
2022-12-01T17:04:39.510Z,12.17
2022-12-01T17:07:06.671Z,12.77
2022-12-01T17:09:33.200Z,12.00
2022-12-01T17:11:59.734Z,12.50
2022-12-01T17:14:26.225Z,11.33
2022-12-01T17:16:52.743Z,14.07
2022-12-01T17:19:19.217Z,12.90
2022-12-01T17:21:46.752Z,13.30
2022-12-01T17:24:17.669Z,13.30
2022-12-01T17:26:45.689Z,13.43
2022-12-01T17:29:12.081Z,12.87
2022-12-01T17:31:38.575Z,12.90
2022-12-01T17:34:05.067Z,12.83
2022-12-01T17:36:31.502Z,11.57
2022-12-01T17:38:58.706Z,12.10
2022-12-01T17:41:32.112Z,12.27
2022-12-01T17:43:58.710Z,12.63
2022-12-01T17:46:25.313Z,14.00
2022-12-01T17:48:51.818Z,14.00
2022-12-01T17:51:18.404Z,13.53
2022-12-01T17:53:44.879Z,13.80
2022-12-01T17:56:13.696Z,12.80
2022-12-01T17:58:40.470Z,12.83
2022-12-01T18:01:14.013Z,12.83
2022-12-01T18:03:40.632Z,13.73
2022-12-01T18:06:07.446Z,13.80
2022-12-01T18:08:35.947Z,14.77
2022-12-01T18:11:08.139Z,14.60
2022-12-01T18:13:48.035Z,13.27
2022-12-01T18:16:26.669Z,13.63
2022-12-01T18:18:54.185Z,14.10
2022-12-01T18:21:22.874Z,12.80
2022-12-01T18:23:50.223Z,13.10
2022-12-01T18:26:17.076Z,12.37
2022-12-01T18:28:43.835Z,12.00
2022-12-01T18:31:13.102Z,13.37
2022-12-01T18:33:41.691Z,12.73
2022-12-01T18:36:13.878Z,11.93
2022-12-01T18:38:40.846Z,12.53
2022-12-01T18:41:07.947Z,12.47
2022-12-01T18:43:34.780Z,12.30
2022-12-01T18:46:03.484Z,12.33
2022-12-01T18:48:30.182Z,13.27
2022-12-01T18:50:59.669Z,13.43
2022-12-01T18:53:26.175Z,12.50
2022-12-01T18:55:52.704Z,13.63
2022-12-01T18:58:19.117Z,13.43
2022-12-01T19:00:45.729Z,14.50
2022-12-01T19:03:12.208Z,12.93
2022-12-01T19:05:39.898Z,13.83
2022-12-01T19:08:06.553Z,14.30
2022-12-01T19:10:33.362Z,12.73
2022-12-01T19:13:00.542Z,13.33
2022-12-01T19:15:27.056Z,13.83
2022-12-01T19:17:54.774Z,13.07
2022-12-01T19:20:21.260Z,13.10
2022-12-01T19:22:47.720Z,12.70
2022-12-01T19:25:14.316Z,13.00
2022-12-01T19:27:41.045Z,13.23
2022-12-01T19:30:12.183Z,13.17
2022-12-01T19:32:40.069Z,15.33
2022-12-01T19:35:06.659Z,12.63
2022-12-01T19:37:33.061Z,13.60
2022-12-01T19:39:59.470Z,13.40
2022-12-01T19:42:26.191Z,14.43
2022-12-01T19:44:52.823Z,15.00
2022-12-01T19:47:22.386Z,14.70
2022-12-01T19:49:49.201Z,14.23
2022-12-01T19:52:15.622Z,13.47
2022-12-01T19:54:42.751Z,14.03
2022-12-01T19:57:09.215Z,13.10
2022-12-01T19:59:35.718Z,15.70
2022-12-01T20:02:02.145Z,15.40
2022-12-01T20:04:28.657Z,13.27
2022-12-01T20:06:55.119Z,13.37
2022-12-01T20:09:21.850Z,14.77
2022-12-01T20:11:48.331Z,14.43
2022-12-01T20:14:14.752Z,15.00
2022-12-01T20:16:41.271Z,13.33
2022-12-01T20:19:08.130Z,12.90
2022-12-01T20:21:39.155Z,14.10
2022-12-01T20:24:07.516Z,14.40
2022-12-01T20:26:37.986Z,16.27
2022-12-01T20:29:11.127Z,14.37
2022-12-01T20:31:38.412Z,14.30
2022-12-01T20:34:09.986Z,13.13
2022-12-01T20:36:36.766Z,13.50
2022-12-01T20:39:05.250Z,15.43
2022-12-01T20:41:32.072Z,14.17
2022-12-01T20:44:02.474Z,13.67
2022-12-01T20:46:33.332Z,14.13
2022-12-01T20:48:59.828Z,13.60
2022-12-01T20:51:26.272Z,14.73
2022-12-01T20:54:19.596Z,15.27
2022-12-01T20:56:40.544Z,15.90
2022-12-01T20:59:07.122Z,15.33
2022-12-01T21:01:34.039Z,14.33
2022-12-01T21:04:00.583Z,14.80
2022-12-01T21:06:29.091Z,16.37
2022-12-01T21:08:56.029Z,14.97
2022-12-01T21:11:48.477Z,16.07
2022-12-01T21:14:26.762Z,14.57
2022-12-01T21:16:57.044Z,15.17
2022-12-01T21:19:32.928Z,14.03
2022-12-01T21:21:59.433Z,17.03
2022-12-01T21:24:33.583Z,16.00
2022-12-01T21:27:08.408Z,15.43
2022-12-01T21:29:46.108Z,16.07
2022-12-01T21:32:23.444Z,14.43
2022-12-01T21:34:50.144Z,14.73
2022-12-01T21:37:22.121Z,13.73
2022-12-01T21:39:51.071Z,16.30
2022-12-01T21:42:22.864Z,14.70
2022-12-01T21:44:49.782Z,14.00
2022-12-01T21:47:20.515Z,14.03
2022-12-01T21:49:51.213Z,13.57
2022-12-01T21:52:30.189Z,14.60
2022-12-01T21:55:02.606Z,14.97
2022-12-01T21:57:48.728Z,15.30
2022-12-01T22:00:27.921Z,15.43
2022-12-01T22:03:15.394Z,13.83
2022-12-01T22:06:06.875Z,14.70
2022-12-01T22:08:40.151Z,13.50
2022-12-01T22:11:11.306Z,15.23
2022-12-01T22:13:37.636Z,15.37
2022-12-01T22:16:04.496Z,14.43
2022-12-01T22:18:40.322Z,14.80
2022-12-01T22:21:21.788Z,14.27
2022-12-01T22:24:09.952Z,14.50
2022-12-01T22:27:05.662Z,14.07
2022-12-01T22:29:39.579Z,16.00
2022-12-01T22:32:12.016Z,15.60
2022-12-01T22:34:57.761Z,15.27
2022-12-01T22:37:40.482Z,14.30
2022-12-01T22:40:29.716Z,14.87
2022-12-01T22:42:56.317Z,17.17
2022-12-01T22:45:26.774Z,15.73
2022-12-01T22:48:01.938Z,16.00
2022-12-01T22:50:32.715Z,15.07
2022-12-01T22:53:06.336Z,15.50
2022-12-01T22:55:32.813Z,16.33
2022-12-01T22:57:59.783Z,15.60
2022-12-01T23:00:27.195Z,16.67
2022-12-01T23:02:56.434Z,17.83
2022-12-01T23:05:41.212Z,15.60
2022-12-01T23:08:16.023Z,15.93
2022-12-01T23:10:43.043Z,15.30
2022-12-01T23:13:16.367Z,14.27
2022-12-01T23:15:50.896Z,15.27
2022-12-01T23:18:20.103Z,14.43
2022-12-01T23:20:57.321Z,15.17
2022-12-01T23:23:32.334Z,16.07
2022-12-01T23:26:06.053Z,15.47
2022-12-01T23:28:32.466Z,15.83
2022-12-01T23:30:59.796Z,14.60
2022-12-01T23:33:30.063Z,15.77
2022-12-01T23:35:56.454Z,17.67
2022-12-01T23:38:26.077Z,15.97
2022-12-01T23:40:55.633Z,16.80
2022-12-01T23:43:25.211Z,16.67
2022-12-01T23:46:02.873Z,17.70
2022-12-01T23:48:35.953Z,19.77
2022-12-01T23:51:03.032Z,18.43
2022-12-01T23:53:32.415Z,17.83
2022-12-01T23:56:10.109Z,20.07
2022-12-01T23:58:36.616Z,19.80
